createdAt,value
2023-02-19T00:01:45.513Z,6.63
2023-02-19T00:04:18.459Z,7.10
2023-02-19T00:06:46.898Z,6.18
2023-02-19T00:09:16.190Z,5.88
2023-02-19T00:11:44.815Z,5.53
2023-02-19T00:14:16.698Z,5.78
2023-02-19T00:16:43.932Z,6.40
2023-02-19T00:19:15.380Z,7.47
2023-02-19T00:21:42.770Z,10.00
2023-02-19T00:24:13.466Z,11.77
2023-02-19T00:26:42.071Z,10.20
2023-02-19T00:29:13.074Z,10.23
2023-02-19T00:31:40.658Z,10.27
2023-02-19T00:34:09.572Z,8.73
2023-02-19T00:36:39.110Z,8.30
2023-02-19T00:39:08.076Z,6.15
2023-02-19T00:41:35.574Z,4.97
2023-02-19T00:44:06.404Z,4.78
2023-02-19T00:46:40.097Z,6.10
2023-02-19T00:49:13.369Z,5.38
2023-02-19T00:51:40.553Z,6.78
2023-02-19T00:54:07.784Z,8.85
2023-02-19T00:56:35.105Z,11.57
2023-02-19T00:59:02.289Z,13.10
2023-02-19T01:01:31.575Z,8.57
2023-02-19T01:03:58.905Z,7.90
2023-02-19T01:06:26.197Z,7.43
2023-02-19T01:08:53.942Z,7.55
2023-02-19T01:11:21.221Z,10.02
2023-02-19T01:13:48.843Z,8.73
2023-02-19T01:16:22.067Z,9.00
2023-02-19T01:18:49.532Z,10.20
2023-02-19T01:21:25.135Z,9.25
2023-02-19T01:26:25.673Z,8.63
2023-02-19T01:28:53.343Z,8.20
2023-02-19T01:31:23.388Z,6.38
2023-02-19T01:33:53.859Z,5.85
2023-02-19T01:36:21.299Z,5.72
2023-02-19T01:38:49.809Z,7.28
2023-02-19T01:41:20.391Z,5.78
2023-02-19T01:44:09.070Z,5.78
2023-02-19T01:46:41.524Z,7.15
2023-02-19T01:49:14.900Z,6.70
2023-02-19T01:51:48.368Z,5.60
2023-02-19T01:54:18.963Z,5.57
2023-02-19T01:56:48.414Z,5.65
2023-02-19T01:59:16.715Z,6.00
2023-02-19T02:01:44.160Z,6.55
2023-02-19T02:04:13.556Z,6.43
2023-02-19T02:06:50.634Z,6.45
2023-02-19T02:09:40.671Z,6.65
2023-02-19T02:12:08.113Z,6.80
2023-02-19T02:14:41.254Z,6.05
2023-02-19T02:17:27.756Z,6.53
2023-02-19T02:20:27.026Z,7.15
2023-02-19T02:23:21.518Z,7.13
2023-02-19T02:26:17.079Z,8.02
2023-02-19T02:29:07.326Z,10.40
2023-02-19T02:32:07.894Z,10.63
2023-02-19T02:34:48.391Z,11.07
2023-02-19T02:37:17.187Z,10.55
2023-02-19T02:39:47.021Z,10.80
2023-02-19T02:42:34.258Z,10.38
2023-02-19T02:45:48.008Z,9.52
2023-02-19T02:48:55.537Z,10.52
2023-02-19T02:51:50.287Z,10.63
2023-02-19T02:54:47.838Z,10.70
2023-02-19T02:57:19.125Z,11.07
2023-02-19T02:59:51.334Z,10.40
2023-02-19T03:02:26.408Z,10.35
2023-02-19T03:05:35.608Z,9.77
2023-02-19T03:08:25.660Z,9.18
2023-02-19T03:11:24.014Z,8.90
2023-02-19T03:14:15.299Z,8.52
2023-02-19T03:17:04.865Z,9.27
2023-02-19T03:19:40.195Z,11.07
2023-02-19T03:22:31.292Z,9.43
2023-02-19T03:25:29.982Z,8.30
2023-02-19T03:28:01.726Z,5.57
2023-02-19T03:30:33.660Z,5.80
2023-02-19T03:33:12.163Z,4.78
2023-02-19T03:36:09.131Z,4.15
2023-02-19T03:38:47.592Z,4.03
2023-02-19T03:41:37.048Z,4.65
2023-02-19T03:44:34.582Z,4.85
2023-02-19T03:47:22.820Z,3.80
2023-02-19T03:49:58.911Z,4.15
2023-02-19T03:52:46.774Z,4.65
2023-02-19T03:55:22.976Z,4.72
2023-02-19T03:58:01.916Z,3.45
2023-02-19T04:00:41.425Z,4.13
2023-02-19T04:03:18.436Z,3.80
2023-02-19T04:05:52.043Z,4.60
2023-02-19T04:08:22.757Z,3.50
2023-02-19T04:11:00.458Z,4.60
2023-02-19T04:13:37.057Z,5.53
2023-02-19T04:16:09.399Z,5.35
2023-02-19T04:18:44.228Z,4.38
2023-02-19T04:21:12.872Z,5.72
2023-02-19T04:23:44.744Z,5.25
2023-02-19T04:26:14.556Z,4.68
2023-02-19T04:28:44.193Z,4.90
2023-02-19T04:31:12.670Z,5.05
2023-02-19T04:33:40.181Z,4.05
2023-02-19T04:36:09.795Z,4.22
2023-02-19T04:38:36.942Z,4.05
2023-02-19T04:41:04.253Z,4.60
2023-02-19T04:43:31.392Z,5.00
2023-02-19T04:46:02.380Z,3.85
2023-02-19T04:48:29.812Z,3.78
2023-02-19T04:50:57.114Z,3.40
2023-02-19T04:53:24.342Z,4.93
2023-02-19T04:55:53.428Z,4.38
2023-02-19T04:58:21.672Z,4.35
2023-02-19T05:00:53.238Z,4.63
2023-02-19T05:03:20.519Z,5.07
2023-02-19T05:05:47.752Z,4.15
2023-02-19T05:08:14.974Z,4.20
2023-02-19T05:10:42.312Z,3.58
2023-02-19T05:13:09.632Z,3.20
2023-02-19T05:15:36.882Z,4.10
2023-02-19T05:18:04.410Z,4.63
2023-02-19T05:20:31.490Z,4.38
2023-02-19T05:22:58.660Z,3.10
2023-02-19T05:25:25.841Z,3.30
2023-02-19T05:28:12.944Z,3.72
2023-02-19T05:30:40.171Z,3.20
2023-02-19T05:33:07.284Z,3.17
2023-02-19T05:35:34.551Z,3.75
2023-02-19T05:38:01.700Z,3.40
2023-02-19T05:40:28.902Z,3.33
2023-02-19T05:42:55.981Z,3.05
2023-02-19T05:45:23.244Z,3.03
2023-02-19T05:47:50.674Z,3.50
2023-02-19T05:50:17.984Z,3.50
2023-02-19T05:52:45.263Z,3.35
2023-02-19T05:55:12.910Z,3.63
2023-02-19T05:57:43.636Z,3.67
2023-02-19T06:00:18.343Z,4.80
2023-02-19T06:02:46.157Z,3.50
2023-02-19T06:05:14.158Z,4.40
2023-02-19T06:07:42.991Z,5.28
2023-02-19T06:10:11.383Z,3.63
2023-02-19T06:12:39.422Z,4.10
2023-02-19T06:15:07.376Z,5.13
2023-02-19T06:17:35.224Z,4.10
2023-02-19T06:20:02.626Z,4.45
2023-02-19T06:22:29.871Z,4.20
2023-02-19T06:24:57.038Z,3.95
2023-02-19T06:27:24.283Z,6.22
2023-02-19T06:29:51.525Z,5.57
2023-02-19T06:32:19.023Z,5.05
2023-02-19T06:34:46.314Z,6.03
2023-02-19T06:37:13.508Z,5.20
2023-02-19T06:39:40.694Z,5.32
2023-02-19T06:42:07.845Z,4.65
2023-02-19T06:44:35.236Z,6.03
2023-02-19T06:47:02.388Z,6.07
2023-02-19T06:49:29.677Z,6.47
2023-02-19T06:51:56.890Z,5.07
2023-02-19T06:54:25.796Z,5.82
2023-02-19T06:56:53.208Z,5.43
2023-02-19T06:59:20.407Z,5.50
2023-02-19T07:01:47.571Z,4.90
2023-02-19T07:04:14.927Z,4.68
2023-02-19T07:06:42.385Z,5.00
2023-02-19T07:09:10.223Z,5.05
2023-02-19T07:11:39.877Z,5.88
2023-02-19T07:14:13.436Z,4.43
2023-02-19T07:16:40.695Z,4.82
2023-02-19T07:19:07.901Z,5.38
2023-02-19T07:21:37.882Z,5.50
2023-02-19T07:24:05.817Z,5.70
2023-02-19T07:26:33.045Z,6.20
2023-02-19T07:29:00.274Z,5.65
2023-02-19T07:31:27.940Z,5.68
2023-02-19T07:33:55.554Z,7.30
2023-02-19T07:36:24.484Z,5.45
2023-02-19T07:38:58.557Z,5.93
2023-02-19T07:41:27.225Z,6.55
2023-02-19T07:43:57.391Z,8.30
2023-02-19T07:46:24.913Z,7.68
2023-02-19T07:48:52.199Z,6.18
2023-02-19T07:51:20.683Z,8.48
2023-02-19T07:53:52.804Z,7.03
2023-02-19T07:56:20.814Z,6.70
2023-02-19T07:58:47.962Z,8.52
2023-02-19T08:01:19.292Z,8.15
2023-02-19T08:03:48.267Z,7.90
2023-02-19T08:06:17.373Z,7.45
2023-02-19T08:08:44.558Z,7.88
2023-02-19T08:11:31.664Z,7.18
2023-02-19T08:13:58.881Z,8.32
2023-02-19T08:16:42.061Z,6.72
2023-02-19T08:19:10.460Z,7.57
2023-02-19T08:21:37.577Z,7.68
2023-02-19T08:24:05.108Z,8.43
2023-02-19T08:26:33.660Z,6.70
2023-02-19T08:29:00.899Z,7.10
2023-02-19T08:31:28.162Z,7.20
2023-02-19T08:33:55.543Z,7.63
2023-02-19T08:36:22.677Z,6.82
2023-02-19T08:38:50.015Z,6.00
2023-02-19T08:41:17.225Z,6.70
2023-02-19T08:43:44.892Z,7.88
2023-02-19T08:46:12.664Z,8.45
2023-02-19T08:48:40.833Z,8.93
2023-02-19T08:51:10.737Z,9.68
2023-02-19T08:53:39.926Z,14.95
2023-02-19T08:56:13.880Z,10.60
2023-02-19T08:58:41.206Z,12.95
2023-02-19T09:01:11.015Z,12.60
2023-02-19T09:03:38.443Z,12.13
2023-02-19T09:06:05.763Z,14.35
2023-02-19T09:08:33.083Z,17.20
2023-02-19T09:11:03.603Z,19.02
2023-02-19T09:13:31.132Z,21.30
2023-02-19T09:15:58.392Z,24.27
2023-02-19T09:18:26.579Z,20.63
2023-02-19T09:20:53.874Z,25.10
2023-02-19T09:23:21.271Z,23.48
2023-02-19T09:25:48.456Z,23.67
2023-02-19T09:28:16.922Z,22.23
2023-02-19T09:30:44.119Z,20.90
2023-02-19T09:33:11.443Z,21.48
2023-02-19T09:35:40.695Z,19.95
2023-02-19T09:38:10.497Z,18.85
2023-02-19T09:40:38.966Z,18.02
2023-02-19T09:43:12.045Z,18.08
2023-02-19T09:45:40.113Z,17.42
2023-02-19T09:48:07.645Z,18.40
2023-02-19T09:50:42.622Z,16.88
2023-02-19T09:53:23.593Z,16.48
2023-02-19T09:55:52.626Z,16.13
2023-02-19T09:58:30.865Z,16.63
2023-02-19T10:01:00.221Z,12.90
2023-02-19T10:03:35.057Z,11.40
2023-02-19T10:06:29.325Z,10.77
2023-02-19T10:09:34.060Z,8.93
2023-02-19T10:12:01.572Z,9.77
2023-02-19T10:14:36.988Z,11.55
2023-02-19T10:17:06.155Z,10.63
2023-02-19T10:19:34.838Z,10.35
2023-02-19T10:22:03.741Z,9.57
2023-02-19T10:24:31.560Z,8.65
2023-02-19T10:26:58.809Z,10.27
2023-02-19T10:29:27.641Z,8.88
2023-02-19T10:32:23.920Z,10.70
2023-02-19T10:35:13.159Z,9.57
2023-02-19T10:37:49.805Z,10.10
2023-02-19T10:40:26.326Z,9.80
2023-02-19T10:43:00.009Z,9.15
2023-02-19T10:48:24.831Z,10.30
2023-02-19T10:51:05.108Z,8.50
2023-02-19T10:53:45.428Z,9.70
2023-02-19T10:56:33.902Z,8.85
2023-02-19T10:59:24.421Z,8.35
2023-02-19T11:02:06.521Z,8.52
2023-02-19T11:04:35.592Z,6.72
2023-02-19T11:07:10.964Z,5.70
2023-02-19T11:09:40.599Z,5.40
2023-02-19T11:12:09.639Z,4.10
2023-02-19T11:14:37.309Z,4.13
2023-02-19T11:17:05.801Z,4.18
2023-02-19T11:19:48.270Z,3.92
2023-02-19T11:22:40.419Z,3.78
2023-02-19T11:25:21.783Z,2.78
2023-02-19T11:28:22.736Z,3.15
2023-02-19T11:30:50.064Z,3.17
2023-02-19T11:33:32.303Z,3.85
2023-02-19T11:36:39.388Z,3.25
2023-02-19T11:39:30.976Z,3.42
2023-02-19T11:42:37.984Z,3.47
2023-02-19T11:45:28.584Z,3.20
2023-02-19T11:48:13.289Z,3.53
2023-02-19T11:50:57.828Z,2.95
2023-02-19T11:53:32.474Z,2.65
2023-02-19T11:56:23.721Z,3.08
2023-02-19T11:59:19.944Z,3.00
2023-02-19T12:02:19.380Z,2.55
2023-02-19T12:05:26.957Z,2.78
2023-02-19T12:08:20.943Z,2.72
2023-02-19T12:11:12.624Z,3.30
2023-02-19T12:14:19.551Z,3.25
2023-02-19T12:17:16.923Z,3.67
2023-02-19T12:20:07.825Z,2.90
2023-02-19T12:22:44.165Z,3.65
2023-02-19T12:25:25.670Z,3.90
2023-02-19T12:28:29.090Z,3.70
2023-02-19T12:31:25.414Z,3.90
2023-02-19T12:34:22.830Z,4.13
2023-02-19T12:37:29.661Z,3.55
2023-02-19T12:40:16.834Z,3.70
2023-02-19T12:43:13.584Z,3.55
2023-02-19T12:45:54.762Z,4.05
2023-02-19T12:49:02.638Z,4.35
2023-02-19T12:51:45.988Z,3.50
2023-02-19T12:54:18.577Z,3.58
2023-02-19T12:56:55.305Z,3.50
2023-02-19T12:59:39.894Z,3.55
2023-02-19T13:02:43.101Z,3.47
2023-02-19T13:05:41.146Z,3.40
2023-02-19T13:08:13.516Z,3.53
2023-02-19T13:10:51.010Z,3.28
2023-02-19T13:13:30.180Z,3.53
2023-02-19T13:16:02.808Z,3.40
2023-02-19T13:18:54.921Z,3.45
2023-02-19T13:21:45.566Z,2.92
2023-02-19T13:24:25.259Z,2.92
2023-02-19T13:27:32.247Z,3.20
2023-02-19T13:30:25.704Z,3.50
2023-02-19T13:33:20.220Z,3.83
2023-02-19T13:36:23.625Z,3.58
2023-02-19T13:38:51.447Z,3.35
2023-02-19T13:41:40.538Z,3.10
2023-02-19T13:44:18.238Z,2.95
2023-02-19T13:46:47.455Z,3.00
2023-02-19T13:49:41.374Z,3.10
2023-02-19T13:52:43.600Z,3.22
2023-02-19T13:55:51.942Z,3.45
2023-02-19T13:58:52.269Z,3.10
2023-02-19T14:01:19.935Z,3.08
2023-02-19T14:04:07.105Z,3.00
2023-02-19T14:07:14.023Z,2.75
2023-02-19T14:09:48.532Z,2.60
2023-02-19T14:12:21.318Z,2.92
2023-02-19T14:14:55.727Z,2.60
2023-02-19T14:17:43.494Z,2.65
2023-02-19T14:20:50.542Z,2.70
2023-02-19T14:23:24.303Z,3.38
2023-02-19T14:28:33.549Z,3.20
2023-02-19T14:31:12.098Z,3.28
2023-02-19T14:33:50.770Z,3.33
2023-02-19T14:36:35.679Z,3.40
2023-02-19T14:39:11.324Z,4.00
2023-02-19T14:41:41.717Z,3.33
2023-02-19T14:44:17.044Z,45.65
2023-02-19T14:47:09.609Z,43.83
2023-02-19T14:49:51.581Z,118.55
2023-02-19T14:52:32.094Z,74.55
2023-02-19T14:55:08.500Z,19.40
2023-02-19T14:57:40.833Z,7.72
2023-02-19T15:00:29.491Z,7.70
2023-02-19T15:02:59.663Z,6.80
2023-02-19T15:05:30.480Z,11.25
2023-02-19T15:08:02.950Z,9.52
2023-02-19T15:10:32.459Z,14.50
2023-02-19T15:13:04.660Z,17.20
2023-02-19T15:15:36.628Z,21.27
2023-02-19T15:18:05.458Z,10.68
2023-02-19T15:20:38.192Z,8.80
2023-02-19T15:23:07.544Z,6.80
2023-02-19T15:25:38.259Z,7.93
2023-02-19T15:28:30.644Z,5.90
2023-02-19T15:31:17.879Z,5.47
2023-02-19T15:33:50.625Z,8.55
2023-02-19T15:36:24.915Z,5.10
2023-02-19T15:38:58.176Z,4.53
2023-02-19T15:41:28.866Z,4.00
2023-02-19T15:44:02.384Z,4.88
2023-02-19T15:46:29.790Z,5.68
2023-02-19T15:49:15.958Z,7.65
2023-02-19T15:51:54.586Z,6.85
2023-02-19T15:54:29.076Z,5.07
2023-02-19T15:57:00.942Z,4.75
2023-02-19T15:59:39.010Z,5.18
2023-02-19T16:02:11.936Z,4.70
2023-02-19T16:04:41.055Z,4.20
2023-02-19T16:07:25.884Z,2.90
2023-02-19T16:10:23.576Z,3.13
2023-02-19T16:13:01.559Z,3.08
2023-02-19T16:15:31.024Z,3.00
2023-02-19T16:17:59.057Z,3.13
2023-02-19T16:20:33.510Z,4.03
2023-02-19T16:23:05.573Z,4.20
2023-02-19T16:25:44.326Z,4.55
2023-02-19T16:28:14.828Z,3.80
2023-02-19T16:30:42.225Z,3.60
2023-02-19T16:33:37.828Z,2.90
2023-02-19T16:36:35.837Z,5.00
2023-02-19T16:39:18.724Z,4.47
2023-02-19T16:42:11.286Z,3.80
2023-02-19T16:44:39.056Z,3.95
2023-02-19T16:47:14.796Z,4.32
2023-02-19T16:49:42.678Z,3.83
2023-02-19T16:52:14.655Z,3.47
2023-02-19T16:54:41.889Z,4.28
2023-02-19T16:57:09.146Z,3.92
2023-02-19T16:59:36.344Z,3.70
2023-02-19T17:02:05.664Z,3.38
2023-02-19T17:04:33.065Z,3.45
2023-02-19T17:07:01.155Z,3.78
2023-02-19T17:09:28.486Z,4.25
2023-02-19T17:11:55.846Z,4.80
2023-02-19T17:14:23.102Z,6.07
2023-02-19T17:16:50.246Z,4.97
2023-02-19T17:19:19.594Z,5.22
2023-02-19T17:21:47.546Z,5.45
2023-02-19T17:24:15.361Z,4.45
2023-02-19T17:26:42.634Z,4.15
2023-02-19T17:29:15.439Z,3.50
2023-02-19T17:31:42.926Z,3.60
2023-02-19T17:34:10.592Z,3.20
2023-02-19T17:36:38.143Z,3.78
2023-02-19T17:39:07.408Z,3.70
2023-02-19T17:41:34.692Z,3.92
2023-02-19T17:44:01.831Z,3.70
2023-02-19T17:46:29.015Z,3.42
2023-02-19T17:48:56.258Z,3.50
2023-02-19T17:51:23.522Z,2.92
2023-02-19T17:53:50.680Z,2.83
2023-02-19T17:56:23.270Z,3.13
2023-02-19T17:58:50.536Z,3.25
2023-02-19T18:01:17.924Z,3.88
2023-02-19T18:03:45.243Z,3.20
2023-02-19T18:06:12.782Z,3.65
2023-02-19T18:08:42.129Z,3.65
2023-02-19T18:11:09.402Z,3.20
2023-02-19T18:13:36.805Z,2.50
2023-02-19T18:16:06.159Z,2.78
2023-02-19T18:18:33.423Z,2.72
2023-02-19T18:21:00.528Z,3.63
2023-02-19T18:23:27.796Z,4.55
2023-02-19T18:25:55.035Z,4.53
2023-02-19T18:28:22.274Z,5.55
2023-02-19T18:30:49.464Z,5.57
2023-02-19T18:33:16.927Z,5.13
2023-02-19T18:35:44.254Z,5.43
2023-02-19T18:38:11.985Z,5.40
2023-02-19T18:40:39.144Z,5.38
2023-02-19T18:43:06.385Z,4.40
2023-02-19T18:45:37.227Z,4.40
2023-02-19T18:48:05.796Z,4.47
2023-02-19T18:50:34.914Z,4.40
2023-02-19T18:53:02.238Z,5.78
2023-02-19T18:55:29.508Z,6.50
2023-02-19T18:57:56.655Z,5.85
2023-02-19T19:00:26.826Z,5.85
2023-02-19T19:02:57.930Z,5.20
2023-02-19T19:05:25.471Z,5.10
2023-02-19T19:07:56.534Z,4.80
2023-02-19T19:10:24.212Z,5.22
2023-02-19T19:12:51.697Z,5.13
2023-02-19T19:15:19.195Z,6.53
2023-02-19T19:17:47.976Z,5.85
2023-02-19T19:20:18.171Z,5.10
2023-02-19T19:22:45.389Z,6.80
2023-02-19T19:25:12.726Z,10.13
2023-02-19T19:27:39.994Z,14.85
2023-02-19T19:30:08.081Z,19.15
2023-02-19T19:32:35.331Z,15.57
2023-02-19T19:35:02.574Z,15.88
2023-02-19T19:37:29.642Z,7.18
2023-02-19T19:39:57.381Z,10.48
2023-02-19T19:42:24.792Z,12.27
2023-02-19T19:44:52.180Z,9.05
2023-02-19T19:47:20.420Z,11.25
2023-02-19T19:49:47.836Z,11.15
2023-02-19T19:52:15.078Z,13.00
2023-02-19T19:54:43.333Z,14.13
2023-02-19T19:57:10.756Z,11.73
2023-02-19T19:59:39.591Z,8.20
2023-02-19T20:02:08.144Z,8.82
2023-02-19T20:04:35.318Z,6.88
2023-02-19T20:07:02.883Z,6.32
2023-02-19T20:09:30.306Z,8.05
2023-02-19T20:11:57.398Z,7.85
2023-02-19T20:14:25.965Z,7.15
2023-02-19T20:16:55.546Z,7.60
2023-02-19T20:19:23.902Z,8.77
2023-02-19T20:21:53.273Z,7.80
2023-02-19T20:24:24.645Z,6.80
2023-02-19T20:26:58.768Z,6.78
2023-02-19T20:29:31.039Z,6.10
2023-02-19T20:32:03.863Z,5.47
2023-02-19T20:34:31.985Z,5.63
2023-02-19T20:36:59.594Z,4.53
2023-02-19T20:39:29.293Z,4.40
2023-02-19T20:41:59.935Z,4.35
2023-02-19T20:44:30.039Z,4.18
2023-02-19T20:46:59.454Z,4.10
2023-02-19T20:49:30.956Z,5.10
2023-02-19T20:52:01.421Z,6.68
2023-02-19T20:54:32.391Z,7.00
2023-02-19T20:57:03.086Z,6.13
2023-02-19T20:59:35.503Z,6.45
2023-02-19T21:02:04.722Z,5.50
2023-02-19T21:04:32.365Z,5.20
2023-02-19T21:06:59.916Z,4.80
2023-02-19T21:09:27.202Z,3.90
2023-02-19T21:11:54.988Z,4.55
2023-02-19T21:14:22.998Z,4.40
2023-02-19T21:16:52.674Z,4.13
2023-02-19T21:19:21.808Z,5.40
2023-02-19T21:21:49.465Z,5.45
2023-02-19T21:24:17.195Z,5.07
2023-02-19T21:26:45.049Z,4.80
2023-02-19T21:29:19.358Z,4.45
2023-02-19T21:31:49.671Z,4.57
2023-02-19T21:34:20.284Z,4.70
2023-02-19T21:36:49.318Z,5.50
2023-02-19T21:39:18.938Z,6.28
2023-02-19T21:41:46.884Z,7.00
2023-02-19T21:44:14.519Z,6.97
2023-02-19T21:46:41.794Z,6.68
2023-02-19T21:49:09.256Z,6.25
2023-02-19T21:51:39.466Z,6.10
2023-02-19T21:54:13.116Z,5.75
2023-02-19T21:56:40.273Z,5.05
2023-02-19T21:59:07.562Z,5.35
2023-02-19T22:01:42.116Z,5.70
2023-02-19T22:04:14.066Z,5.28
2023-02-19T22:06:41.423Z,5.32
2023-02-19T22:09:10.002Z,5.70
2023-02-19T22:11:37.585Z,7.57
2023-02-19T22:14:04.782Z,7.07
2023-02-19T22:16:32.205Z,7.80
2023-02-19T22:19:00.178Z,7.53
2023-02-19T22:21:32.568Z,6.88
2023-02-19T22:24:01.020Z,6.05
2023-02-19T22:26:34.334Z,5.38
2023-02-19T22:29:08.092Z,6.97
2023-02-19T22:31:35.855Z,7.68
2023-02-19T22:34:03.669Z,7.15
2023-02-19T22:36:33.491Z,7.78
2023-02-19T22:39:01.688Z,7.30
2023-02-19T22:41:29.467Z,6.75
2023-02-19T22:43:57.972Z,5.78
2023-02-19T22:46:27.902Z,6.22
2023-02-19T22:48:55.153Z,7.13
2023-02-19T22:51:23.739Z,6.97
2023-02-19T22:53:52.989Z,6.85
2023-02-19T22:56:22.537Z,6.75
2023-02-19T22:58:49.815Z,7.47
2023-02-19T23:01:17.670Z,8.10
2023-02-19T23:03:52.577Z,7.97
2023-02-19T23:06:26.613Z,7.88
2023-02-19T23:11:26.468Z,7.82
2023-02-19T23:13:54.130Z,6.22
2023-02-19T23:16:21.607Z,5.90
2023-02-19T23:18:49.049Z,6.53
2023-02-19T23:21:17.826Z,7.25
2023-02-19T23:23:46.210Z,8.43
2023-02-19T23:26:15.047Z,8.30
2023-02-19T23:28:43.574Z,8.00
2023-02-19T23:31:11.727Z,8.60
2023-02-19T23:33:39.649Z,7.65
2023-02-19T23:36:07.316Z,6.43
2023-02-19T23:38:35.034Z,6.20
2023-02-19T23:41:02.655Z,6.70
2023-02-19T23:43:29.913Z,5.85
2023-02-19T23:45:57.224Z,7.55
2023-02-19T23:48:24.506Z,8.90
2023-02-19T23:50:51.643Z,8.00
2023-02-19T23:53:19.003Z,9.68
2023-02-19T23:55:46.248Z,7.03
2023-02-19T23:58:13.790Z,7.57
